createdAt,value
2023-04-16T00:07:37.034Z,6.80
2023-04-16T00:17:38.884Z,7.00
2023-04-16T00:27:40.718Z,7.00
2023-04-16T00:37:44.134Z,7.10
2023-04-16T00:47:46.208Z,6.80
2023-04-16T00:57:48.100Z,6.80
2023-04-16T01:07:51.079Z,6.80
2023-04-16T01:17:53.058Z,6.90
2023-04-16T01:27:54.906Z,7.00
2023-04-16T01:37:56.920Z,7.00
2023-04-16T01:47:59.526Z,7.00
2023-04-16T01:58:01.555Z,7.00
2023-04-16T02:08:07.559Z,6.80
2023-04-16T02:18:09.531Z,6.60
2023-04-16T02:28:13.112Z,6.70
2023-04-16T02:38:18.131Z,6.60
2023-04-16T02:48:20.116Z,6.40
2023-04-16T02:58:23.519Z,6.20
2023-04-16T03:08:25.607Z,6.10
2023-04-16T03:18:27.393Z,5.80
2023-04-16T03:28:29.230Z,5.80
2023-04-16T03:38:31.188Z,5.90
2023-04-16T03:48:34.394Z,5.90
2023-04-16T03:58:36.359Z,6.10
2023-04-16T04:08:39.336Z,6.20
2023-04-16T04:18:44.251Z,6.30
2023-04-16T04:28:46.901Z,6.50
2023-04-16T04:38:50.677Z,6.40
2023-04-16T04:48:52.594Z,6.60
2023-04-16T04:58:55.208Z,6.40
2023-04-16T05:08:57.562Z,6.60
2023-04-16T05:18:59.396Z,6.70
2023-04-16T05:29:01.222Z,6.90
2023-04-16T05:39:06.300Z,7.30
2023-04-16T05:49:08.421Z,7.70
2023-04-16T05:59:10.666Z,8.20
2023-04-16T06:09:12.820Z,8.90
2023-04-16T06:19:14.612Z,10.20
2023-04-16T06:29:16.415Z,11.60
2023-04-16T06:39:18.608Z,13.20
2023-04-16T06:49:21.539Z,13.60
2023-04-16T06:59:23.483Z,12.30
2023-04-16T07:09:25.376Z,13.20
2023-04-16T07:19:27.318Z,14.00
2023-04-16T07:29:29.159Z,14.30
2023-04-16T07:39:31.068Z,14.10
2023-04-16T07:49:32.954Z,13.40
2023-04-16T07:59:34.778Z,14.30
2023-04-16T08:09:37.207Z,14.10
2023-04-16T08:19:39.147Z,14.20
2023-04-16T08:29:40.972Z,14.10
2023-04-16T08:39:42.848Z,13.00
2023-04-16T08:49:45.644Z,12.90
2023-04-16T08:59:48.267Z,12.80
2023-04-16T09:09:53.286Z,13.30
2023-04-16T09:19:55.112Z,12.80
2023-04-16T09:29:57.065Z,12.60
2023-04-16T09:40:03.801Z,13.10
2023-04-16T09:50:06.288Z,13.80
2023-04-16T10:00:10.219Z,14.60
2023-04-16T10:10:12.389Z,14.60
2023-04-16T10:20:17.293Z,14.50
2023-04-16T10:30:19.640Z,14.20
2023-04-16T10:40:26.892Z,14.40
2023-04-16T10:50:35.979Z,14.50
2023-04-16T11:01:01.384Z,15.20
2023-04-16T11:11:05.735Z,15.50
2023-04-16T11:21:11.531Z,14.60
2023-04-16T11:31:13.480Z,14.80
2023-04-16T11:41:20.459Z,14.70
2023-04-16T11:51:22.442Z,14.50
2023-04-16T12:01:24.370Z,14.80
2023-04-16T12:11:40.299Z,14.60
2023-04-16T12:21:47.188Z,14.30
2023-04-16T12:31:50.574Z,14.00
2023-04-16T12:41:52.361Z,14.20
2023-04-16T12:51:54.183Z,14.40
2023-04-16T13:01:56.150Z,14.60
2023-04-16T13:11:58.077Z,15.10
2023-04-16T13:21:59.955Z,14.80
2023-04-16T13:32:02.154Z,14.70
2023-04-16T13:42:04.099Z,15.00
2023-04-16T13:52:05.893Z,14.80
2023-04-16T14:02:08.283Z,15.50
2023-04-16T14:12:10.344Z,15.30
2023-04-16T14:22:12.196Z,15.00
2023-04-16T14:32:14.698Z,14.90
2023-04-16T14:42:16.591Z,15.10
2023-04-16T14:52:18.409Z,14.90
2023-04-16T15:02:20.389Z,14.90
2023-04-16T15:12:22.400Z,14.80
2023-04-16T15:22:24.300Z,14.80
2023-04-16T15:32:26.202Z,14.60
2023-04-16T15:42:28.087Z,14.60
2023-04-16T15:52:30.285Z,14.50
2023-04-16T16:02:32.397Z,14.30
2023-04-16T16:12:35.907Z,14.20
2023-04-16T16:22:37.780Z,14.10
2023-04-16T16:32:39.616Z,14.10
2023-04-16T16:42:41.625Z,14.10
2023-04-16T16:52:44.443Z,13.90
2023-04-16T17:02:46.790Z,13.90
2023-04-16T17:12:49.676Z,13.80
2023-04-16T17:22:51.538Z,13.60
2023-04-16T17:32:53.485Z,13.50
2023-04-16T17:42:55.354Z,13.30
2023-04-16T17:52:57.204Z,13.10
2023-04-16T18:02:59.538Z,12.90
2023-04-16T18:13:01.529Z,12.70
2023-04-16T18:23:03.473Z,12.40
2023-04-16T18:43:10.078Z,12.10
2023-04-16T18:53:11.992Z,11.90
2023-04-16T19:03:13.826Z,11.80
2023-04-16T19:13:16.372Z,11.70
2023-04-16T19:23:18.227Z,11.60
2023-04-16T19:33:20.420Z,11.50
2023-04-16T19:43:22.256Z,11.30
2023-04-16T19:53:24.024Z,11.20
2023-04-16T20:03:25.986Z,11.10
2023-04-16T20:13:27.860Z,11.00
2023-04-16T20:23:29.667Z,10.90
2023-04-16T20:33:31.566Z,10.90
2023-04-16T20:43:33.523Z,10.80
2023-04-16T20:53:36.353Z,10.60
2023-04-16T21:03:38.494Z,10.50
2023-04-16T21:13:40.508Z,10.30
2023-04-16T21:23:42.367Z,10.10
2023-04-16T21:33:44.124Z,10.00
2023-04-16T21:43:46.054Z,9.80
2023-04-16T21:53:47.940Z,9.60
2023-04-16T22:03:49.947Z,9.50
2023-04-16T22:13:51.906Z,9.40
2023-04-16T22:23:53.740Z,9.30
2023-04-16T22:33:55.564Z,9.10
2023-04-16T22:43:57.411Z,8.90
2023-04-16T22:53:59.351Z,8.80
2023-04-16T23:04:01.260Z,8.70
2023-04-16T23:14:03.126Z,8.60
2023-04-16T23:24:05.621Z,8.40
2023-04-16T23:34:07.493Z,8.30
2023-04-16T23:44:09.392Z,8.30
2023-04-16T23:54:11.819Z,8.20
